sensor_id;sensor_type;location;lat;lon;timestamp;pressure;altitude;pressure_sealevel;temperature;humidity
10668;BME280;5382;42.136;24.796;2024-03-02T00:01:44;99591.09;;;8.83;100.00
10668;BME280;5382;42.136;24.796;2024-03-02T00:04:12;99600.63;;;8.72;100.00
10668;BME280;5382;42.136;24.796;2024-03-02T00:06:39;99595.00;;;8.64;100.00
10668;BME280;5382;42.136;24.796;2024-03-02T00:09:09;99595.44;;;8.71;100.00
10668;BME280;5382;42.136;24.796;2024-03-02T00:11:37;99595.00;;;8.64;100.00
10668;BME280;5382;42.136;24.796;2024-03-02T00:14:04;99591.00;;;8.59;100.00
10668;BME280;5382;42.136;24.796;2024-03-02T00:16:31;99582.34;;;8.57;100.00
10668;BME280;5382;42.136;24.796;2024-03-02T00:19:01;99592.06;;;8.69;100.00
10668;BME280;5382;42.136;24.796;2024-03-02T00:21:31;99589.03;;;8.62;100.00
10668;BME280;5382;42.136;24.796;2024-03-02T00:23:58;99564.09;;;8.41;100.00
10668;BME280;5382;42.136;24.796;2024-03-02T00:26:28;99578.03;;;8.56;100.00
10668;BME280;5382;42.136;24.796;2024-03-02T00:28:56;99585.50;;;8.62;100.00
10668;BME280;5382;42.136;24.796;2024-03-02T00:31:23;99582.16;;;8.60;100.00
10668;BME280;5382;42.136;24.796;2024-03-02T00:33:50;99586.03;;;8.54;100.00
10668;BME280;5382;42.136;24.796;2024-03-02T00:36:24;99559.78;;;8.40;100.00
10668;BME280;5382;42.136;24.796;2024-03-02T00:38:54;99562.50;;;8.38;100.00
10668;BME280;5382;42.136;24.796;2024-03-02T00:41:24;99578.56;;;8.48;100.00
10668;BME280;5382;42.136;24.796;2024-03-02T00:44:00;99565.91;;;8.53;100.00
10668;BME280;5382;42.136;24.796;2024-03-02T00:46:30;99568.03;;;8.61;100.00
10668;BME280;5382;42.136;24.796;2024-03-02T00:49:00;99569.28;;;8.42;100.00
10668;BME280;5382;42.136;24.796;2024-03-02T00:51:29;99561.69;;;8.50;100.00
10668;BME280;5382;42.136;24.796;2024-03-02T00:54:00;99575.84;;;8.62;100.00
10668;BME280;5382;42.136;24.796;2024-03-02T00:56:29;99569.50;;;8.65;100.00
10668;BME280;5382;42.136;24.796;2024-03-02T00:58:56;99563.19;;;8.55;100.00
10668;BME280;5382;42.136;24.796;2024-03-02T01:01:23;99549.03;;;8.56;100.00
10668;BME280;5382;42.136;24.796;2024-03-02T01:03:50;99554.53;;;8.52;100.00
10668;BME280;5382;42.136;24.796;2024-03-02T01:06:17;99527.84;;;8.44;100.00
10668;BME280;5382;42.136;24.796;2024-03-02T01:08:45;99543.31;;;8.62;100.00
10668;BME280;5382;42.136;24.796;2024-03-02T01:11:16;99532.78;;;8.62;100.00
10668;BME280;5382;42.136;24.796;2024-03-02T01:13:43;99519.19;;;8.42;100.00
10668;BME280;5382;42.136;24.796;2024-03-02T01:16:10;99536.59;;;8.58;100.00
10668;BME280;5382;42.136;24.796;2024-03-02T01:18:37;99539.31;;;8.43;100.00
10668;BME280;5382;42.136;24.796;2024-03-02T01:21:04;99536.91;;;8.53;100.00
10668;BME280;5382;42.136;24.796;2024-03-02T01:23:31;99543.31;;;8.49;100.00
10668;BME280;5382;42.136;24.796;2024-03-02T01:25:58;99548.59;;;8.49;100.00
10668;BME280;5382;42.136;24.796;2024-03-02T01:28:27;99538.47;;;8.56;100.00
10668;BME280;5382;42.136;24.796;2024-03-02T01:30:54;99533.84;;;8.46;100.00
10668;BME280;5382;42.136;24.796;2024-03-02T01:33:21;99534.88;;;8.44;100.00
10668;BME280;5382;42.136;24.796;2024-03-02T01:35:48;99539.44;;;8.42;100.00
10668;BME280;5382;42.136;24.796;2024-03-02T01:38:15;99538.41;;;8.44;100.00
10668;BME280;5382;42.136;24.796;2024-03-02T01:40:42;99541.44;;;8.51;100.00
10668;BME280;5382;42.136;24.796;2024-03-02T01:43:10;99542.28;;;8.51;100.00
10668;BME280;5382;42.136;24.796;2024-03-02T01:45:38;99544.50;;;8.58;100.00
10668;BME280;5382;42.136;24.796;2024-03-02T01:48:07;99537.84;;;8.65;100.00
10668;BME280;5382;42.136;24.796;2024-03-02T01:50:34;99533.50;;;8.64;100.00
10668;BME280;5382;42.136;24.796;2024-03-02T01:53:01;99529.53;;;8.58;100.00
10668;BME280;5382;42.136;24.796;2024-03-02T01:55:29;99537.22;;;8.48;100.00
10668;BME280;5382;42.136;24.796;2024-03-02T01:57:57;99530.47;;;8.57;100.00
10668;BME280;5382;42.136;24.796;2024-03-02T02:00:24;99518.00;;;8.46;100.00
10668;BME280;5382;42.136;24.796;2024-03-02T02:02:53;99529.97;;;8.39;100.00
10668;BME280;5382;42.136;24.796;2024-03-02T02:05:20;99536.97;;;8.39;100.00
10668;BME280;5382;42.136;24.796;2024-03-02T02:07:47;99526.66;;;8.48;100.00
10668;BME280;5382;42.136;24.796;2024-03-02T02:10:14;99524.78;;;8.50;100.00
10668;BME280;5382;42.136;24.796;2024-03-02T02:12:41;99525.59;;;8.38;100.00
10668;BME280;5382;42.136;24.796;2024-03-02T02:15:28;99513.47;;;8.48;100.00
10668;BME280;5382;42.136;24.796;2024-03-02T02:17:57;99462.31;;;8.13;100.00
10668;BME280;5382;42.136;24.796;2024-03-02T02:20:24;99492.06;;;8.27;100.00
10668;BME280;5382;42.136;24.796;2024-03-02T02:23:00;99523.25;;;8.34;100.00
10668;BME280;5382;42.136;24.796;2024-03-02T02:25:27;99510.81;;;8.36;100.00
10668;BME280;5382;42.136;24.796;2024-03-02T02:27:55;99518.88;;;8.47;100.00
10668;BME280;5382;42.136;24.796;2024-03-02T02:30:23;99496.28;;;8.30;100.00
10668;BME280;5382;42.136;24.796;2024-03-02T02:32:51;99519.78;;;8.33;100.00
10668;BME280;5382;42.136;24.796;2024-03-02T02:35:18;99527.31;;;8.39;100.00
10668;BME280;5382;42.136;24.796;2024-03-02T02:37:46;99475.28;;;8.16;100.00
10668;BME280;5382;42.136;24.796;2024-03-02T02:40:16;99516.66;;;8.41;100.00
10668;BME280;5382;42.136;24.796;2024-03-02T02:42:44;99519.50;;;8.50;100.00
10668;BME280;5382;42.136;24.796;2024-03-02T02:45:11;99508.34;;;8.47;100.00
10668;BME280;5382;42.136;24.796;2024-03-02T02:47:39;99514.19;;;8.38;100.00
10668;BME280;5382;42.136;24.796;2024-03-02T02:50:07;99510.53;;;8.53;100.00
10668;BME280;5382;42.136;24.796;2024-03-02T02:52:35;99509.47;;;8.56;100.00
10668;BME280;5382;42.136;24.796;2024-03-02T02:55:04;99520.47;;;8.49;100.00
10668;BME280;5382;42.136;24.796;2024-03-02T02:57:33;99503.66;;;8.38;100.00
10668;BME280;5382;42.136;24.796;2024-03-02T03:00:04;99526.88;;;8.58;100.00
10668;BME280;5382;42.136;24.796;2024-03-02T03:02:36;99515.72;;;8.55;100.00
10668;BME280;5382;42.136;24.796;2024-03-02T03:05:03;99520.47;;;8.49;100.00
10668;BME280;5382;42.136;24.796;2024-03-02T03:07:31;99525.91;;;8.46;100.00
10668;BME280;5382;42.136;24.796;2024-03-02T03:09:58;99514.97;;;8.52;100.00
10668;BME280;5382;42.136;24.796;2024-03-02T03:12:25;99515.38;;;8.46;100.00
10668;BME280;5382;42.136;24.796;2024-03-02T03:14:54;99508.94;;;8.38;100.00
10668;BME280;5382;42.136;24.796;2024-03-02T03:17:21;99521.19;;;8.51;100.00
10668;BME280;5382;42.136;24.796;2024-03-02T03:19:48;99520.78;;;8.45;100.00
10668;BME280;5382;42.136;24.796;2024-03-02T03:22:15;99523.06;;;8.37;100.00
10668;BME280;5382;42.136;24.796;2024-03-02T03:24:42;99520.00;;;8.30;100.00
10668;BME280;5382;42.136;24.796;2024-03-02T03:27:09;99511.78;;;8.35;100.00
10668;BME280;5382;42.136;24.796;2024-03-02T03:29:37;99504.50;;;8.38;100.00
10668;BME280;5382;42.136;24.796;2024-03-02T03:32:06;99498.16;;;8.28;100.00
10668;BME280;5382;42.136;24.796;2024-03-02T03:34:33;99503.03;;;8.34;100.00
10668;BME280;5382;42.136;24.796;2024-03-02T03:37:00;99495.44;;;8.29;100.00
10668;BME280;5382;42.136;24.796;2024-03-02T03:39:27;99493.63;;;8.30;100.00
10668;BME280;5382;42.136;24.796;2024-03-02T03:41:54;99504.50;;;8.25;100.00
10668;BME280;5382;42.136;24.796;2024-03-02T03:44:21;99507.78;;;8.16;100.00
10668;BME280;5382;42.136;24.796;2024-03-02T03:46:48;99513.13;;;8.15;100.00
10668;BME280;5382;42.136;24.796;2024-03-02T03:49:17;99508.69;;;8.15;100.00
10668;BME280;5382;42.136;24.796;2024-03-02T03:51:44;99502.59;;;8.15;100.00
10668;BME280;5382;42.136;24.796;2024-03-02T03:54:11;99505.97;;;8.17;100.00
10668;BME280;5382;42.136;24.796;2024-03-02T03:56:38;99504.19;;;8.17;100.00
10668;BME280;5382;42.136;24.796;2024-03-02T03:59:05;99506.59;;;8.20;100.00
10668;BME280;5382;42.136;24.796;2024-03-02T04:01:32;99511.47;;;8.14;100.00
10668;BME280;5382;42.136;24.796;2024-03-02T04:03:59;99511.69;;;8.11;100.00
10668;BME280;5382;42.136;24.796;2024-03-02T04:06:28;99516.50;;;8.04;100.00
10668;BME280;5382;42.136;24.796;2024-03-02T04:08:55;99477.28;;;7.86;100.00
10668;BME280;5382;42.136;24.796;2024-03-02T04:11:22;99519.59;;;8.11;100.00
10668;BME280;5382;42.136;24.796;2024-03-02T04:13:49;99516.94;;;8.11;100.00
10668;BME280;5382;42.136;24.796;2024-03-02T04:16:16;99524.31;;;8.05;100.00
10668;BME280;5382;42.136;24.796;2024-03-02T04:18:43;99526.00;;;8.06;100.00
10668;BME280;5382;42.136;24.796;2024-03-02T04:21:09;99451.09;;;7.58;100.00
10668;BME280;5382;42.136;24.796;2024-03-02T04:23:38;99519.22;;;8.02;100.00
10668;BME280;5382;42.136;24.796;2024-03-02T04:26:05;99521.16;;;8.00;100.00
10668;BME280;5382;42.136;24.796;2024-03-02T04:28:32;99520.28;;;8.13;100.00
10668;BME280;5382;42.136;24.796;2024-03-02T04:30:59;99530.97;;;8.24;100.00
10668;BME280;5382;42.136;24.796;2024-03-02T04:33:26;99528.88;;;8.29;100.00
10668;BME280;5382;42.136;24.796;2024-03-02T04:35:53;99497.94;;;8.18;100.00
10668;BME280;5382;42.136;24.796;2024-03-02T04:38:20;99509.16;;;8.35;100.00
10668;BME280;5382;42.136;24.796;2024-03-02T04:40:48;99520.56;;;8.48;100.00
10668;BME280;5382;42.136;24.796;2024-03-02T04:43:15;99517.81;;;8.49;100.00
10668;BME280;5382;42.136;24.796;2024-03-02T04:45:42;99516.34;;;8.58;100.00
10668;BME280;5382;42.136;24.796;2024-03-02T04:48:09;99509.16;;;8.47;100.00
10668;BME280;5382;42.136;24.796;2024-03-02T04:50:37;99520.66;;;8.46;100.00
10668;BME280;5382;42.136;24.796;2024-03-02T04:53:04;99523.09;;;8.49;100.00
10668;BME280;5382;42.136;24.796;2024-03-02T04:55:31;99519.59;;;8.49;100.00
10668;BME280;5382;42.136;24.796;2024-03-02T04:58:17;99525.63;;;8.51;100.00
10668;BME280;5382;42.136;24.796;2024-03-02T05:00:44;99515.72;;;8.42;100.00
10668;BME280;5382;42.136;24.796;2024-03-02T05:03:12;99522.66;;;8.43;100.00
10668;BME280;5382;42.136;24.796;2024-03-02T05:05:39;99414.56;;;7.66;100.00
10668;BME280;5382;42.136;24.796;2024-03-02T05:08:06;99537.53;;;8.44;100.00
10668;BME280;5382;42.136;24.796;2024-03-02T05:10:33;99532.75;;;8.36;100.00
10668;BME280;5382;42.136;24.796;2024-03-02T05:13:02;99534.66;;;8.34;100.00
10668;BME280;5382;42.136;24.796;2024-03-02T05:15:30;99529.56;;;8.31;100.00
10668;BME280;5382;42.136;24.796;2024-03-02T05:17:57;99540.56;;;8.38;100.00
10668;BME280;5382;42.136;24.796;2024-03-02T05:20:25;99538.34;;;8.32;100.00
10668;BME280;5382;42.136;24.796;2024-03-02T05:22:52;99531.59;;;8.27;100.00
10668;BME280;5382;42.136;24.796;2024-03-02T05:25:19;99538.97;;;8.35;100.00
10668;BME280;5382;42.136;24.796;2024-03-02T05:27:46;99543.00;;;8.41;100.00
10668;BME280;5382;42.136;24.796;2024-03-02T05:30:13;99535.91;;;8.28;100.00
10668;BME280;5382;42.136;24.796;2024-03-02T05:32:42;99536.97;;;8.39;100.00
10668;BME280;5382;42.136;24.796;2024-03-02T05:35:08;99537.81;;;8.26;100.00
10668;BME280;5382;42.136;24.796;2024-03-02T05:37:38;99548.28;;;8.41;100.00
10668;BME280;5382;42.136;24.796;2024-03-02T05:40:06;99553.75;;;8.38;100.00
10668;BME280;5382;42.136;24.796;2024-03-02T05:42:33;99546.06;;;8.35;100.00
10668;BME280;5382;42.136;24.796;2024-03-02T05:45:00;99557.00;;;8.28;100.00
10668;BME280;5382;42.136;24.796;2024-03-02T05:47:27;99547.84;;;8.34;100.00
10668;BME280;5382;42.136;24.796;2024-03-02T05:49:55;99551.94;;;8.38;100.00
10668;BME280;5382;42.136;24.796;2024-03-02T05:52:22;99558.84;;;8.41;100.00
10668;BME280;5382;42.136;24.796;2024-03-02T05:54:49;99556.09;;;8.42;100.00
10668;BME280;5382;42.136;24.796;2024-03-02T05:57:16;99546.63;;;8.40;100.00
10668;BME280;5382;42.136;24.796;2024-03-02T05:59:57;99545.34;;;8.45;100.00
10668;BME280;5382;42.136;24.796;2024-03-02T06:02:24;99548.72;;;8.47;100.00
10668;BME280;5382;42.136;24.796;2024-03-02T06:04:53;99524.44;;;8.29;100.00
10668;BME280;5382;42.136;24.796;2024-03-02T06:07:22;99549.88;;;8.43;100.00
10668;BME280;5382;42.136;24.796;2024-03-02T06:09:49;99549.47;;;8.49;100.00
10668;BME280;5382;42.136;24.796;2024-03-02T06:12:17;99552.81;;;8.51;100.00
10668;BME280;5382;42.136;24.796;2024-03-02T06:14:45;99546.19;;;8.59;100.00
10668;BME280;5382;42.136;24.796;2024-03-02T06:17:12;99543.75;;;8.68;100.00
10668;BME280;5382;42.136;24.796;2024-03-02T06:19:39;99520.84;;;8.30;100.00
10668;BME280;5382;42.136;24.796;2024-03-02T06:22:06;99562.97;;;8.58;100.00
10668;BME280;5382;42.136;24.796;2024-03-02T06:24:37;99534.13;;;8.29;100.00
10668;BME280;5382;42.136;24.796;2024-03-02T06:27:04;99566.53;;;8.57;100.00
10668;BME280;5382;42.136;24.796;2024-03-02T06:29:33;99566.97;;;8.50;100.00
10668;BME280;5382;42.136;24.796;2024-03-02T06:32:00;99555.78;;;8.60;100.00
10668;BME280;5382;42.136;24.796;2024-03-02T06:34:27;99552.19;;;8.61;100.00
10668;BME280;5382;42.136;24.796;2024-03-02T06:36:54;99556.09;;;8.81;100.00
10668;BME280;5382;42.136;24.796;2024-03-02T06:39:22;99567.06;;;8.74;100.00
10668;BME280;5382;42.136;24.796;2024-03-02T06:41:50;99562.31;;;8.67;100.00
10668;BME280;5382;42.136;24.796;2024-03-02T06:44:17;99574.75;;;8.78;100.00
10668;BME280;5382;42.136;24.796;2024-03-02T06:46:44;99568.41;;;8.80;100.00
10668;BME280;5382;42.136;24.796;2024-03-02T06:49:11;99577.69;;;8.99;100.00
10668;BME280;5382;42.136;24.796;2024-03-02T06:51:39;99586.69;;;8.83;100.00
10668;BME280;5382;42.136;24.796;2024-03-02T06:54:07;99570.13;;;8.56;100.00
10668;BME280;5382;42.136;24.796;2024-03-02T06:56:34;99600.41;;;8.88;100.00
10668;BME280;5382;42.136;24.796;2024-03-02T06:59:02;99589.19;;;8.85;100.00
10668;BME280;5382;42.136;24.796;2024-03-02T07:01:29;99594.47;;;8.72;100.00
10668;BME280;5382;42.136;24.796;2024-03-02T07:03:59;99586.25;;;8.89;100.00
10668;BME280;5382;42.136;24.796;2024-03-02T07:06:26;99580.22;;;8.87;100.00
10668;BME280;5382;42.136;24.796;2024-03-02T07:08:53;99579.38;;;9.00;100.00
10668;BME280;5382;42.136;24.796;2024-03-02T07:11:20;99571.47;;;9.00;100.00
10668;BME280;5382;42.136;24.796;2024-03-02T07:13:46;99560.66;;;9.15;100.00
10668;BME280;5382;42.136;24.796;2024-03-02T07:16:15;99569.50;;;9.27;100.00
10668;BME280;5382;42.136;24.796;2024-03-02T07:19:04;99548.53;;;9.13;100.00
10668;BME280;5382;42.136;24.796;2024-03-02T07:21:32;99576.97;;;9.33;100.00
10668;BME280;5382;42.136;24.796;2024-03-02T07:23:59;99568.34;;;9.18;100.00
10668;BME280;5382;42.136;24.796;2024-03-02T07:26:28;99574.50;;;9.19;100.00
10668;BME280;5382;42.136;24.796;2024-03-02T07:28:55;99586.69;;;9.33;100.00
10668;BME280;5382;42.136;24.796;2024-03-02T07:31:24;99557.09;;;9.04;100.00
10668;BME280;5382;42.136;24.796;2024-03-02T07:33:51;99598.94;;;9.34;100.00
10668;BME280;5382;42.136;24.796;2024-03-02T07:36:18;99550.88;;;9.05;100.00
10668;BME280;5382;42.136;24.796;2024-03-02T07:38:46;99588.63;;;9.18;100.00
10668;BME280;5382;42.136;24.796;2024-03-02T07:41:15;99595.06;;;9.27;100.00
10668;BME280;5382;42.136;24.796;2024-03-02T07:43:42;99585.72;;;9.34;100.00
10668;BME280;5382;42.136;24.796;2024-03-02T07:46:11;99585.19;;;9.42;100.00
10668;BME280;5382;42.136;24.796;2024-03-02T07:48:39;99585.19;;;9.42;100.00
10668;BME280;5382;42.136;24.796;2024-03-02T07:51:06;99569.34;;;9.42;100.00
10668;BME280;5382;42.136;24.796;2024-03-02T07:53:33;99564.69;;;9.45;100.00
10668;BME280;5382;42.136;24.796;2024-03-02T07:56:00;99588.34;;;9.47;100.00
10668;BME280;5382;42.136;24.796;2024-03-02T07:58:28;99601.88;;;9.42;100.00
10668;BME280;5382;42.136;24.796;2024-03-02T08:00:56;99597.53;;;9.41;100.00
10668;BME280;5382;42.136;24.796;2024-03-02T08:03:23;99598.38;;;9.42;100.00
10668;BME280;5382;42.136;24.796;2024-03-02T08:05:52;99608.34;;;9.38;100.00
10668;BME280;5382;42.136;24.796;2024-03-02T08:08:19;99603.41;;;9.57;100.00
10668;BME280;5382;42.136;24.796;2024-03-02T08:10:46;99603.84;;;9.75;100.00
10668;BME280;5382;42.136;24.796;2024-03-02T08:13:13;99606.34;;;9.90;100.00
10668;BME280;5382;42.136;24.796;2024-03-02T08:15:40;99541.25;;;9.41;100.00
10668;BME280;5382;42.136;24.796;2024-03-02T08:18:07;99597.72;;;9.99;100.00
10668;BME280;5382;42.136;24.796;2024-03-02T08:20:34;99596.38;;;9.93;100.00
10668;BME280;5382;42.136;24.796;2024-03-02T08:23:03;99592.28;;;9.89;100.00
10668;BME280;5382;42.136;24.796;2024-03-02T08:25:30;99581.72;;;9.89;100.00
10668;BME280;5382;42.136;24.796;2024-03-02T08:27:57;99586.88;;;9.91;100.00
10668;BME280;5382;42.136;24.796;2024-03-02T08:30:24;99598.97;;;9.82;100.00
10668;BME280;5382;42.136;24.796;2024-03-02T08:32:51;99533.59;;;9.49;100.00
10668;BME280;5382;42.136;24.796;2024-03-02T08:35:18;99598.44;;;10.01;100.00
10668;BME280;5382;42.136;24.796;2024-03-02T08:37:47;99599.09;;;10.04;100.00
10668;BME280;5382;42.136;24.796;2024-03-02T08:40:16;99608.38;;;10.21;100.00
10668;BME280;5382;42.136;24.796;2024-03-02T08:42:43;99605.97;;;10.18;100.00
10668;BME280;5382;42.136;24.796;2024-03-02T08:45:11;99593.78;;;10.29;100.00
10668;BME280;5382;42.136;24.796;2024-03-02T08:47:38;99591.13;;;10.29;100.00
10668;BME280;5382;42.136;24.796;2024-03-02T08:50:06;99573.47;;;10.29;100.00
10668;BME280;5382;42.136;24.796;2024-03-02T08:52:33;99573.16;;;10.10;100.00
10668;BME280;5382;42.136;24.796;2024-03-02T08:55:01;99582.78;;;10.22;100.00
10668;BME280;5382;42.136;24.796;2024-03-02T08:57:29;99583.22;;;10.40;100.00
10668;BME280;5382;42.136;24.796;2024-03-02T08:59:56;99581.84;;;9.99;100.00
10668;BME280;5382;42.136;24.796;2024-03-02T09:02:23;99584.06;;;10.05;100.00
10668;BME280;5382;42.136;24.796;2024-03-02T09:04:51;99578.63;;;10.07;100.00
10668;BME280;5382;42.136;24.796;2024-03-02T09:07:19;99585.28;;;10.12;100.00
10668;BME280;5382;42.136;24.796;2024-03-02T09:09:46;99570.09;;;10.03;100.00
10668;BME280;5382;42.136;24.796;2024-03-02T09:12:13;99577.16;;;10.26;100.00
10668;BME280;5382;42.136;24.796;2024-03-02T09:14:41;99582.44;;;10.26;100.00
10668;BME280;5382;42.136;24.796;2024-03-02T09:17:09;99594.28;;;10.34;100.00
10668;BME280;5382;42.136;24.796;2024-03-02T09:19:37;99598.78;;;10.20;100.00
10668;BME280;5382;42.136;24.796;2024-03-02T09:22:04;99591.53;;;10.11;100.00
10668;BME280;5382;42.136;24.796;2024-03-02T09:24:32;99598.63;;;10.11;100.00
10668;BME280;5382;42.136;24.796;2024-03-02T09:27:00;99596.31;;;10.06;100.00
10668;BME280;5382;42.136;24.796;2024-03-02T09:29:27;99603.81;;;10.12;100.00
10668;BME280;5382;42.136;24.796;2024-03-02T09:31:56;99598.50;;;10.12;100.00
10668;BME280;5382;42.136;24.796;2024-03-02T09:34:23;99605.00;;;10.19;100.00
10668;BME280;5382;42.136;24.796;2024-03-02T09:36:51;99595.31;;;9.96;100.00
10668;BME280;5382;42.136;24.796;2024-03-02T09:39:18;99599.44;;;10.11;100.00
10668;BME280;5382;42.136;24.796;2024-03-02T09:41:45;99599.94;;;10.16;100.00
10668;BME280;5382;42.136;24.796;2024-03-02T09:44:12;99600.50;;;9.97;100.00
10668;BME280;5382;42.136;24.796;2024-03-02T09:46:39;99568.59;;;9.88;100.00
10668;BME280;5382;42.136;24.796;2024-03-02T09:49:11;99607.66;;;10.19;100.00
10668;BME280;5382;42.136;24.796;2024-03-02T09:51:38;99603.19;;;10.33;100.00
10668;BME280;5382;42.136;24.796;2024-03-02T09:54:07;99604.84;;;10.34;100.00
10668;BME280;5382;42.136;24.796;2024-03-02T09:56:34;99598.06;;;10.65;100.00
10668;BME280;5382;42.136;24.796;2024-03-02T09:59:01;99597.97;;;10.78;100.00
10668;BME280;5382;42.136;24.796;2024-03-02T10:01:28;99608.31;;;10.81;100.00
10668;BME280;5382;42.136;24.796;2024-03-02T10:03:58;99603.25;;;10.78;100.00
10668;BME280;5382;42.136;24.796;2024-03-02T10:06:27;99587.56;;;10.52;100.00
10668;BME280;5382;42.136;24.796;2024-03-02T10:08:55;99602.72;;;10.50;100.00
10668;BME280;5382;42.136;24.796;2024-03-02T10:11:27;99596.25;;;10.54;100.00
10668;BME280;5382;42.136;24.796;2024-03-02T10:14:05;99595.25;;;10.44;100.00
10668;BME280;5382;42.136;24.796;2024-03-02T10:16:35;99594.28;;;10.34;100.00
10668;BME280;5382;42.136;24.796;2024-03-02T10:19:25;99598.25;;;10.39;100.00
10668;BME280;5382;42.136;24.796;2024-03-02T10:21:59;99597.03;;;10.32;100.00
10668;BME280;5382;42.136;24.796;2024-03-02T10:24:28;99578.34;;;10.22;100.00
10668;BME280;5382;42.136;24.796;2024-03-02T10:27:01;99590.94;;;10.43;100.00
10668;BME280;5382;42.136;24.796;2024-03-02T10:29:29;99585.03;;;10.51;100.00
10668;BME280;5382;42.136;24.796;2024-03-02T10:31:57;99519.06;;;10.14;100.00
10668;BME280;5382;42.136;24.796;2024-03-02T10:34:24;99580.84;;;10.48;100.00
10668;BME280;5382;42.136;24.796;2024-03-02T10:36:52;99581.94;;;10.57;100.00
10668;BME280;5382;42.136;24.796;2024-03-02T10:39:21;99563.75;;;10.41;100.00
10668;BME280;5382;42.136;24.796;2024-03-02T10:41:52;99568.81;;;10.55;100.00
10668;BME280;5382;42.136;24.796;2024-03-02T10:44:19;99557.75;;;10.50;100.00
10668;BME280;5382;42.136;24.796;2024-03-02T10:46:47;99547.66;;;10.55;100.00
10668;BME280;5382;42.136;24.796;2024-03-02T10:49:16;99555.84;;;10.63;100.00
10668;BME280;5382;42.136;24.796;2024-03-02T10:51:43;99550.34;;;10.66;100.00
10668;BME280;5382;42.136;24.796;2024-03-02T10:54:10;99551.66;;;10.72;100.00
10668;BME280;5382;42.136;24.796;2024-03-02T10:56:40;99520.97;;;10.58;100.00
10668;BME280;5382;42.136;24.796;2024-03-02T10:59:16;99548.63;;;10.65;100.00
10668;BME280;5382;42.136;24.796;2024-03-02T11:01:47;99546.22;;;10.74;100.00
10668;BME280;5382;42.136;24.796;2024-03-02T11:04:16;99553.56;;;10.59;100.00
10668;BME280;5382;42.136;24.796;2024-03-02T11:06:48;99495.44;;;10.35;100.00
10668;BME280;5382;42.136;24.796;2024-03-02T11:09:19;99546.69;;;10.79;100.00
10668;BME280;5382;42.136;24.796;2024-03-02T11:11:54;99538.03;;;10.99;100.00
10668;BME280;5382;42.136;24.796;2024-03-02T11:14:24;99531.03;;;11.09;100.00
10668;BME280;5382;42.136;24.796;2024-03-02T11:16:52;99530.19;;;11.20;100.00
10668;BME280;5382;42.136;24.796;2024-03-02T11:19:20;99533.72;;;10.98;100.00
10668;BME280;5382;42.136;24.796;2024-03-02T11:21:48;99514.34;;;10.98;100.00
10668;BME280;5382;42.136;24.796;2024-03-02T11:24:31;99519.84;;;11.17;100.00
10668;BME280;5382;42.136;24.796;2024-03-02T11:27:05;99526.28;;;11.35;100.00
10668;BME280;5382;42.136;24.796;2024-03-02T11:29:48;99519.53;;;11.54;100.00
10668;BME280;5382;42.136;24.796;2024-03-02T11:32:17;99512.50;;;11.64;100.00
10668;BME280;5382;42.136;24.796;2024-03-02T11:34:47;99494.06;;;11.63;100.00
10668;BME280;5382;42.136;24.796;2024-03-02T11:37:15;99504.06;;;11.91;100.00
10668;BME280;5382;42.136;24.796;2024-03-02T11:39:44;99506.84;;;11.57;100.00
10668;BME280;5382;42.136;24.796;2024-03-02T11:42:14;99512.91;;;11.81;100.00
10668;BME280;5382;42.136;24.796;2024-03-02T11:44:45;99471.84;;;11.75;100.00
10668;BME280;5382;42.136;24.796;2024-03-02T11:47:14;99493.06;;;11.75;100.00
10668;BME280;5382;42.136;24.796;2024-03-02T11:49:43;99468.41;;;11.63;100.00
10668;BME280;5382;42.136;24.796;2024-03-02T11:52:12;99494.91;;;11.95;100.00
10668;BME280;5382;42.136;24.796;2024-03-02T11:54:41;99487.25;;;12.23;100.00
10668;BME280;5382;42.136;24.796;2024-03-02T11:57:14;99485.41;;;12.44;100.00
10668;BME280;5382;42.136;24.796;2024-03-02T11:59:41;99490.94;;;12.62;100.00
10668;BME280;5382;42.136;24.796;2024-03-02T12:02:14;99498.41;;;12.88;100.00
10668;BME280;5382;42.136;24.796;2024-03-02T12:04:43;99494.28;;;13.05;100.00
10668;BME280;5382;42.136;24.796;2024-03-02T12:07:11;99490.16;;;13.22;100.00
10668;BME280;5382;42.136;24.796;2024-03-02T12:09:39;99491.09;;;13.21;100.00
10668;BME280;5382;42.136;24.796;2024-03-02T12:12:07;99498.38;;;13.19;100.00
10668;BME280;5382;42.136;24.796;2024-03-02T12:14:37;99492.88;;;13.01;100.00
10668;BME280;5382;42.136;24.796;2024-03-02T12:17:05;99492.94;;;12.80;100.00
10668;BME280;5382;42.136;24.796;2024-03-02T12:19:33;99483.28;;;12.69;100.00
10668;BME280;5382;42.136;24.796;2024-03-02T12:22:00;99486.19;;;12.66;100.00
10668;BME280;5382;42.136;24.796;2024-03-02T12:24:29;99480.69;;;12.48;100.00
10668;BME280;5382;42.136;24.796;2024-03-02T12:26:57;99463.59;;;12.41;100.00
10668;BME280;5382;42.136;24.796;2024-03-02T12:29:25;99488.94;;;12.24;100.00
10668;BME280;5382;42.136;24.796;2024-03-02T12:31:53;99408.63;;;11.70;100.00
10668;BME280;5382;42.136;24.796;2024-03-02T12:34:21;99482.09;;;12.21;100.00
10668;BME280;5382;42.136;24.796;2024-03-02T12:36:49;99467.28;;;12.19;100.00
10668;BME280;5382;42.136;24.796;2024-03-02T12:39:18;99490.69;;;12.14;100.00
10668;BME280;5382;42.136;24.796;2024-03-02T12:41:46;99488.31;;;12.11;100.00
10668;BME280;5382;42.136;24.796;2024-03-02T12:44:17;99476.63;;;11.81;100.00
10668;BME280;5382;42.136;24.796;2024-03-02T12:46:44;99483.97;;;11.89;100.00
10668;BME280;5382;42.136;24.796;2024-03-02T12:49:15;99481.81;;;11.83;100.00
10668;BME280;5382;42.136;24.796;2024-03-02T12:51:43;99472.13;;;11.61;100.00
10668;BME280;5382;42.136;24.796;2024-03-02T12:54:12;99493.53;;;11.69;100.00
10668;BME280;5382;42.136;24.796;2024-03-02T12:56:40;99462.91;;;11.55;100.00
10668;BME280;5382;42.136;24.796;2024-03-02T12:59:17;99494.91;;;11.63;100.00
10668;BME280;5382;42.136;24.796;2024-03-02T13:01:50;99487.84;;;11.52;100.00
10668;BME280;5382;42.136;24.796;2024-03-02T13:04:24;99499.25;;;11.64;100.00